Time;durP1;ratioP1;P1;durP2;ratioP2;P2;SDS_P1;SDS_P2;PMS_P1;PMS_P2;Temp;Humidity;BMP_temperature;BMP_pressure;BME280_temperature;BME280_humidity;BME280_pressure;Samples;Min_cycle;Max_cycle;Signal;HPM_P1;HPM_P2
2022/03/30 00:02:13;;;;;;;4.65;1.70;;;12.60;94.70;;;;;;5000621;28;20034;-65
2022/03/30 00:04:39;;;;;;;0.15;0.15;;;12.50;95.40;;;;;;5001071;28;20510;-66
2022/03/30 00:07:06;;;;;;;0.10;0.10;;;12.50;95.60;;;;;;5002846;28;20076;-66
2022/03/30 00:09:35;;;;;;;0.10;0.10;;;12.60;96.00;;;;;;4998747;28;20029;-67
2022/03/30 00:12:01;;;;;;;0.10;0.10;;;12.60;96.30;;;;;;5002471;28;20030;-66
2022/03/30 00:14:26;;;;;;;0.10;0.10;;;12.50;96.80;;;;;;5003065;28;20033;-66
2022/03/30 00:16:52;;;;;;;0.50;0.50;;;12.40;97.60;;;;;;5000391;28;20503;-67
2022/03/30 00:19:19;;;;;;;1.75;1.67;;;12.40;98.30;;;;;;4993332;28;20050;-65
2022/03/30 00:21:45;;;;;;;0.43;0.43;;;12.40;98.20;;;;;;5000496;28;20037;-66
2022/03/30 00:24:11;;;;;;;0.30;0.30;;;12.40;98.60;;;;;;4996754;28;20026;-67
2022/03/30 00:26:37;;;;;;;0.10;0.10;;;12.40;98.50;;;;;;5004513;28;20108;-66
2022/03/30 00:29:04;;;;;;;0.10;0.10;;;12.40;99.00;;;;;;4998765;28;20030;-65
2022/03/30 00:31:31;;;;;;;0.40;0.40;;;12.40;98.90;;;;;;5000638;28;20111;-71
2022/03/30 00:33:56;;;;;;;0.10;0.10;;;12.40;99.20;;;;;;5001332;28;20368;-67
2022/03/30 00:36:22;;;;;;;0.10;0.10;;;12.40;99.60;;;;;;5006493;28;20145;-67
2022/03/30 00:38:47;;;;;;;0.50;0.50;;;12.40;99.80;;;;;;5008406;28;20026;-66
2022/03/30 00:41:13;;;;;;;0.10;0.10;;;12.50;99.90;;;;;;5003872;28;20033;-66
2022/03/30 00:43:39;;;;;;;0.30;0.30;;;12.50;99.90;;;;;;5011972;28;20506;-67
2022/03/30 00:46:05;;;;;;;0.20;0.20;;;12.50;99.90;;;;;;5001743;28;20175;-66
2022/03/30 00:48:30;;;;;;;0.38;0.38;;;12.50;99.90;;;;;;5009697;28;20026;-68
2022/03/30 00:50:56;;;;;;;0.20;0.20;;;12.50;99.90;;;;;;5007058;28;20053;-66
2022/03/30 00:53:22;;;;;;;0.10;0.10;;;12.50;99.90;;;;;;4995306;28;20022;-67
2022/03/30 00:55:47;;;;;;;1.10;1.10;;;12.50;99.90;;;;;;5011890;28;20088;-66
2022/03/30 00:58:14;;;;;;;1.05;1.05;;;12.50;99.90;;;;;;5011606;28;20478;-66
2022/03/30 01:00:40;;;;;;;0.38;0.38;;;12.50;99.90;;;;;;5011378;28;20038;-67
2022/03/30 01:03:05;;;;;;;0.10;0.10;;;12.40;99.90;;;;;;5010680;28;20030;-66
2022/03/30 01:05:31;;;;;;;0.95;0.95;;;12.30;99.90;;;;;;5011359;28;20026;-66
2022/03/30 01:07:58;;;;;;;0.10;0.10;;;12.30;99.90;;;;;;5002048;28;20424;-67
2022/03/30 01:10:24;;;;;;;0.88;0.88;;;12.30;99.90;;;;;;5008071;28;20076;-67
2022/03/30 01:12:52;;;;;;;0.15;0.15;;;12.40;99.90;;;;;;5010967;28;20065;-67
2022/03/30 01:15:19;;;;;;;0.57;0.57;;;12.40;99.90;;;;;;5027052;28;20450;-67
2022/03/30 01:17:45;;;;;;;0.65;0.65;;;12.40;99.90;;;;;;5026693;28;20057;-67
2022/03/30 01:20:12;;;;;;;0.50;0.50;;;12.50;99.90;;;;;;5005935;28;20052;-66
2022/03/30 01:22:39;;;;;;;7.57;2.13;;;12.50;99.90;;;;;;5007379;28;20052;-67
2022/03/30 01:25:05;;;;;;;0.10;0.10;;;12.50;99.90;;;;;;5016342;28;20040;-67
2022/03/30 01:27:31;;;;;;;0.10;0.10;;;12.60;99.90;;;;;;5006674;28;20093;-67
2022/03/30 01:32:41;;;;;;;0.10;0.10;;;12.70;99.90;;;;;;5002399;28;20072;-68
2022/03/30 01:35:10;;;;;;;0.20;0.20;;;12.70;99.90;;;;;;5009207;28;20022;-66
2022/03/30 01:37:36;;;;;;;0.43;0.43;;;12.60;99.90;;;;;;5001705;28;20049;-67
2022/03/30 01:40:05;;;;;;;0.30;0.30;;;12.70;99.90;;;;;;5002442;28;20496;-66
2022/03/30 01:42:30;;;;;;;0.10;0.10;;;12.70;99.90;;;;;;5004111;28;20029;-66
2022/03/30 01:44:56;;;;;;;0.10;0.10;;;12.70;99.90;;;;;;5004341;28;20080;-66
2022/03/30 01:47:22;;;;;;;0.10;0.10;;;12.60;99.90;;;;;;5004874;28;20030;-66
2022/03/30 01:49:48;;;;;;;0.10;0.10;;;12.60;99.90;;;;;;5005202;28;21157;-68
2022/03/30 01:52:17;;;;;;;1.23;1.17;;;12.60;99.90;;;;;;5006534;28;20041;-67
2022/03/30 01:54:43;;;;;;;0.17;0.17;;;12.60;99.90;;;;;;5000745;28;20028;-67
2022/03/30 01:57:12;;;;;;;0.15;0.15;;;12.50;99.90;;;;;;5002954;28;20459;-67
2022/03/30 01:59:39;;;;;;;0.10;0.10;;;12.60;99.90;;;;;;5006802;28;20026;-68
2022/03/30 02:02:05;;;;;;;0.10;0.10;;;12.50;99.90;;;;;;5003508;28;20076;-66
2022/03/30 02:04:31;;;;;;;1.55;1.45;;;12.50;99.90;;;;;;5003903;28;20034;-66
2022/03/30 02:06:57;;;;;;;0.50;0.50;;;12.60;99.90;;;;;;5003664;28;20032;-68
2022/03/30 02:09:23;;;;;;;0.10;0.10;;;12.70;99.90;;;;;;4998504;28;20061;-67
2022/03/30 02:11:50;;;;;;;0.20;0.20;;;12.50;99.90;;;;;;5005003;28;20065;-67
2022/03/30 02:14:16;;;;;;;2.53;2.42;;;12.60;99.90;;;;;;5004806;28;20029;-66
2022/03/30 02:16:42;;;;;;;0.52;0.52;;;12.60;99.90;;;;;;5000495;28;20041;-66
2022/03/30 02:19:08;;;;;;;0.10;0.10;;;12.70;99.90;;;;;;5006382;28;20026;-66
2022/03/30 02:21:34;;;;;;;1.30;1.30;;;12.70;99.90;;;;;;5017776;28;20499;-66
2022/03/30 02:24:00;;;;;;;0.10;0.10;;;12.60;99.90;;;;;;5004321;28;20025;-66
2022/03/30 02:26:27;;;;;;;4.70;4.38;;;12.60;99.90;;;;;;4998785;28;20121;-66
2022/03/30 02:28:54;;;;;;;0.20;0.20;;;12.70;99.90;;;;;;5000981;28;20121;-67
2022/03/30 02:31:21;;;;;;;0.10;0.10;;;12.70;99.90;;;;;;5000824;28;20026;-67
2022/03/30 02:33:47;;;;;;;0.10;0.10;;;12.50;99.90;;;;;;5001008;28;20033;-68
2022/03/30 02:36:13;;;;;;;0.10;0.10;;;12.40;99.90;;;;;;5003117;28;20057;-67
2022/03/30 02:38:40;;;;;;;0.25;0.25;;;12.40;99.90;;;;;;5004252;28;20030;-65
2022/03/30 02:41:06;;;;;;;0.10;0.10;;;12.40;99.90;;;;;;5011781;28;20038;-66
2022/03/30 02:43:32;;;;;;;0.10;0.10;;;12.40;99.90;;;;;;5002943;28;20028;-66
2022/03/30 02:45:58;;;;;;;0.68;0.68;;;12.40;99.90;;;;;;5007555;28;20029;-67
2022/03/30 02:48:28;;;;;;;0.10;0.10;;;12.50;99.90;;;;;;5002646;28;20092;-67
2022/03/30 02:50:58;;;;;;;0.10;0.10;;;12.50;99.90;;;;;;5000410;28;20109;-66
2022/03/30 02:53:25;;;;;;;0.30;0.30;;;12.50;99.90;;;;;;5003457;28;20018;-67
2022/03/30 02:55:51;;;;;;;0.10;0.10;;;12.50;99.90;;;;;;5002626;28;20056;-66
2022/03/30 02:58:19;;;;;;;1.48;1.40;;;12.50;99.90;;;;;;5007316;28;20487;-67
2022/03/30 03:00:46;;;;;;;0.10;0.10;;;12.50;99.90;;;;;;5000373;28;20086;-66
2022/03/30 03:03:12;;;;;;;1.42;1.38;;;12.50;99.90;;;;;;5006596;28;20481;-67
2022/03/30 03:05:41;;;;;;;1.23;1.23;;;12.40;99.90;;;;;;5006570;28;20117;-66
2022/03/30 03:08:08;;;;;;;0.30;0.30;;;12.50;99.90;;;;;;5006981;28;20030;-67
2022/03/30 03:10:36;;;;;;;0.20;0.20;;;12.50;99.90;;;;;;5006066;28;20044;-67
2022/03/30 03:13:06;;;;;;;0.10;0.10;;;12.60;99.90;;;;;;5006282;28;20031;-66
2022/03/30 03:15:33;;;;;;;0.10;0.10;;;12.60;99.90;;;;;;5005325;28;20029;-67
2022/03/30 03:18:01;;;;;;;0.70;0.70;;;12.50;99.90;;;;;;5005578;28;20015;-66
2022/03/30 03:20:27;;;;;;;0.20;0.20;;;12.40;99.90;;;;;;5008201;28;20018;-66
2022/03/30 03:22:54;;;;;;;0.10;0.10;;;12.40;99.90;;;;;;5007144;28;20108;-68
2022/03/30 03:25:20;;;;;;;0.10;0.10;;;12.40;99.90;;;;;;5002572;28;20081;-66
2022/03/30 03:27:45;;;;;;;0.10;0.10;;;12.40;99.90;;;;;;5001330;28;20585;-67
2022/03/30 03:30:11;;;;;;;0.40;0.40;;;12.40;99.90;;;;;;4998613;28;20021;-67
2022/03/30 03:32:37;;;;;;;0.10;0.10;;;12.30;99.90;;;;;;5009629;28;20092;-71
2022/03/30 03:35:03;;;;;;;0.10;0.10;;;12.30;99.90;;;;;;5025090;28;20025;-66
2022/03/30 03:37:29;;;;;;;0.10;0.10;;;12.40;99.90;;;;;;5005565;28;20030;-67
2022/03/30 03:39:55;;;;;;;0.63;0.63;;;12.40;99.90;;;;;;5007415;28;20369;-67
2022/03/30 03:42:21;;;;;;;0.20;0.20;;;12.30;99.90;;;;;;5005418;28;20051;-69
2022/03/30 03:44:47;;;;;;;0.20;0.20;;;12.20;99.90;;;;;;5009826;28;20028;-69
2022/03/30 03:47:12;;;;;;;0.10;0.10;;;12.10;99.90;;;;;;5011643;28;20030;-67
2022/03/30 03:49:39;;;;;;;0.30;0.30;;;12.20;99.90;;;;;;5012387;28;20080;-66
2022/03/30 03:52:06;;;;;;;0.10;0.10;;;12.30;99.90;;;;;;5012751;28;20022;-68
2022/03/30 03:54:32;;;;;;;0.20;0.20;;;12.30;99.90;;;;;;5012678;28;20022;-68
2022/03/30 03:56:57;;;;;;;2.15;2.05;;;12.30;99.90;;;;;;5010360;28;20476;-69
2022/03/30 03:59:23;;;;;;;0.10;0.10;;;12.30;99.90;;;;;;5006403;28;20030;-68
2022/03/30 04:01:49;;;;;;;0.13;0.13;;;12.40;99.90;;;;;;5009378;28;20109;-66
2022/03/30 04:04:16;;;;;;;0.10;0.10;;;12.40;99.90;;;;;;5008330;28;20033;-68
2022/03/30 04:06:42;;;;;;;0.10;0.10;;;12.40;99.90;;;;;;5005788;28;20057;-67
2022/03/30 04:09:07;;;;;;;0.10;0.10;;;12.40;99.90;;;;;;5010644;28;20065;-69
2022/03/30 04:11:33;;;;;;;0.85;0.85;;;12.40;99.90;;;;;;5006552;28;20483;-69
2022/03/30 04:13:59;;;;;;;0.10;0.10;;;12.40;99.90;;;;;;5004337;28;20479;-67
2022/03/30 04:16:24;;;;;;;3.55;3.35;;;12.50;99.90;;;;;;5008673;28;20476;-67
2022/03/30 04:18:50;;;;;;;0.10;0.10;;;12.40;99.90;;;;;;5005783;28;20025;-66
2022/03/30 04:21:16;;;;;;;0.10;0.10;;;12.50;99.90;;;;;;5005261;28;20523;-68
2022/03/30 04:23:41;;;;;;;0.10;0.10;;;12.40;99.90;;;;;;5003908;28;20132;-66
2022/03/30 04:26:10;;;;;;;0.50;0.50;;;12.40;99.90;;;;;;5003076;28;20257;-68
2022/03/30 04:28:40;;;;;;;1.10;1.10;;;12.50;99.90;;;;;;5003989;28;20057;-67
2022/03/30 04:31:07;;;;;;;0.10;0.10;;;12.40;99.90;;;;;;5005352;28;20018;-68
2022/03/30 04:33:33;;;;;;;4.93;2.80;;;12.40;99.90;;;;;;5019711;28;20026;-67
2022/03/30 04:35:58;;;;;;;0.10;0.10;;;12.30;99.90;;;;;;5006968;28;20029;-67
2022/03/30 04:38:24;;;;;;;0.10;0.10;;;12.40;99.90;;;;;;5007500;28;20479;-67
2022/03/30 04:40:49;;;;;;;0.30;0.30;;;12.40;99.90;;;;;;5007051;28;20427;-67
2022/03/30 04:43:15;;;;;;;0.10;0.10;;;12.30;99.90;;;;;;5002941;28;20034;-69
2022/03/30 04:45:40;;;;;;;0.10;0.10;;;12.30;99.90;;;;;;5007317;28;20091;-68
2022/03/30 04:48:06;;;;;;;0.10;0.10;;;12.30;99.90;;;;;;5005571;28;20041;-68
2022/03/30 04:50:32;;;;;;;2.15;2.05;;;12.20;99.90;;;;;;5004692;28;20029;-67
2022/03/30 04:52:58;;;;;;;0.10;0.10;;;12.10;99.90;;;;;;5007288;28;20038;-67
2022/03/30 04:55:23;;;;;;;1.90;1.75;;;11.90;99.90;;;;;;5005671;28;20403;-67
2022/03/30 04:57:49;;;;;;;0.60;0.60;;;11.80;99.90;;;;;;5002767;28;20053;-67
2022/03/30 05:00:15;;;;;;;0.10;0.10;;;11.80;99.90;;;;;;5007955;28;20034;-68
2022/03/30 05:02:40;;;;;;;7.28;4.57;;;11.70;99.90;;;;;;5003987;28;20480;-68
2022/03/30 05:05:11;;;;;;;2.10;0.90;;;11.70;99.90;;;;;;5004604;28;20036;-67
2022/03/30 05:07:38;;;;;;;0.10;0.10;;;11.60;99.90;;;;;;5005198;28;20022;-66
2022/03/30 05:10:05;;;;;;;0.35;0.35;;;11.60;99.90;;;;;;5004185;28;20115;-69
2022/03/30 05:12:31;;;;;;;0.10;0.10;;;11.50;99.90;;;;;;5010578;28;20508;-68
2022/03/30 05:14:57;;;;;;;0.10;0.10;;;11.40;99.90;;;;;;5003931;28;20049;-67
2022/03/30 05:17:23;;;;;;;0.10;0.10;;;11.40;99.90;;;;;;5001900;28;20416;-67
2022/03/30 05:19:49;;;;;;;0.10;0.10;;;11.30;99.90;;;;;;5001698;28;20392;-68
2022/03/30 05:22:15;;;;;;;0.10;0.10;;;11.30;99.90;;;;;;4998089;28;20547;-66
2022/03/30 05:24:40;;;;;;;2.72;1.17;;;11.20;99.90;;;;;;4998893;28;20101;-66
2022/03/30 05:27:06;;;;;;;0.20;0.20;;;11.20;99.90;;;;;;5006435;28;20041;-67
2022/03/30 05:29:32;;;;;;;0.15;0.15;;;11.10;99.90;;;;;;5000746;28;20498;-66
2022/03/30 05:31:57;;;;;;;0.10;0.10;;;11.10;99.90;;;;;;5005708;28;20049;-68
2022/03/30 05:37:05;;;;;;;2.70;1.88;;;11.00;99.90;;;;;;5580581;22;20053;-70
2022/03/30 05:39:31;;;;;;;4.50;4.18;;;10.90;99.90;;;;;;5024430;28;20041;-69
2022/03/30 05:41:57;;;;;;;0.35;0.35;;;10.90;99.90;;;;;;5023309;28;20096;-69
2022/03/30 05:44:22;;;;;;;0.20;0.20;;;10.90;99.90;;;;;;5023051;28;20086;-69
2022/03/30 05:46:48;;;;;;;0.10;0.10;;;10.80;99.90;;;;;;5016416;28;20402;-66
2022/03/30 05:49:14;;;;;;;0.30;0.30;;;10.90;99.90;;;;;;5023277;28;20402;-69
2022/03/30 05:51:39;;;;;;;0.30;0.30;;;10.90;99.90;;;;;;5029713;22;20058;-65
2022/03/30 05:54:05;;;;;;;0.77;0.77;;;10.90;99.90;;;;;;5013764;28;20379;-64
2022/03/30 05:59:15;;;;;;;0.40;0.40;;;10.90;99.90;;;;;;5016712;28;20032;-66
2022/03/30 06:01:41;;;;;;;0.10;0.10;;;11.00;99.90;;;;;;5006031;28;20030;-65
2022/03/30 06:04:07;;;;;;;0.88;0.85;;;10.90;99.90;;;;;;4988004;28;20052;-65
2022/03/30 06:06:33;;;;;;;0.10;0.10;;;11.00;99.90;;;;;;4994034;28;20399;-65
2022/03/30 06:09:01;;;;;;;0.10;0.10;;;10.90;99.90;;;;;;4989681;28;20026;-65
2022/03/30 06:11:26;;;;;;;0.10;0.10;;;10.90;99.90;;;;;;5000650;28;20031;-64
2022/03/30 06:13:52;;;;;;;0.80;0.80;;;11.00;99.90;;;;;;4992483;28;20377;-64
2022/03/30 06:16:18;;;;;;;0.13;0.13;;;10.90;99.90;;;;;;4994746;28;20022;-65
2022/03/30 06:18:43;;;;;;;0.10;0.10;;;11.00;99.90;;;;;;4995845;28;20817;-64
2022/03/30 06:21:10;;;;;;;0.10;0.10;;;10.90;99.90;;;;;;4987781;28;20553;-63
2022/03/30 06:23:36;;;;;;;26.25;5.88;;;11.00;99.90;;;;;;5001078;28;20033;-64
2022/03/30 06:26:02;;;;;;;0.22;0.22;;;11.00;99.90;;;;;;4984844;28;20084;-64
2022/03/30 06:28:31;;;;;;;0.63;0.63;;;11.10;99.90;;;;;;4994823;28;20037;-65
2022/03/30 06:30:57;;;;;;;0.85;0.85;;;11.10;99.90;;;;;;4996533;28;20029;-66
2022/03/30 06:33:23;;;;;;;0.30;0.30;;;11.20;99.90;;;;;;4995100;28;20026;-65
2022/03/30 06:35:48;;;;;;;0.10;0.10;;;11.30;99.90;;;;;;4994392;28;20165;-65
2022/03/30 06:38:14;;;;;;;0.10;0.10;;;11.20;99.90;;;;;;4997421;28;20066;-65
2022/03/30 06:40:40;;;;;;;1.35;1.30;;;11.30;99.90;;;;;;5003919;28;20387;-65
2022/03/30 06:43:05;;;;;;;0.43;0.43;;;11.20;99.90;;;;;;4990352;28;20042;-65
2022/03/30 06:45:31;;;;;;;4.43;4.05;;;11.30;99.90;;;;;;4991200;28;20022;-65
2022/03/30 06:47:57;;;;;;;0.10;0.10;;;11.40;99.90;;;;;;4999317;28;20034;-66
2022/03/30 06:50:22;;;;;;;0.10;0.10;;;11.30;99.90;;;;;;4996625;28;20030;-65
2022/03/30 06:52:49;;;;;;;0.10;0.10;;;11.50;99.90;;;;;;4998432;28;20049;-65
2022/03/30 06:55:15;;;;;;;0.10;0.10;;;11.50;99.90;;;;;;5001358;28;20172;-64
2022/03/30 06:57:43;;;;;;;0.10;0.10;;;11.30;99.90;;;;;;5000206;28;20101;-64
2022/03/30 07:00:12;;;;;;;0.10;0.10;;;11.40;99.90;;;;;;5005450;28;20057;-65
2022/03/30 07:02:38;;;;;;;0.10;0.10;;;11.40;99.90;;;;;;4999344;28;20026;-64
2022/03/30 07:05:04;;;;;;;0.50;0.50;;;11.50;99.90;;;;;;5004230;28;20431;-65
2022/03/30 07:10:15;;;;;;;0.10;0.10;;;11.60;99.90;;;;;;5002504;28;20084;-65
2022/03/30 07:12:40;;;;;;;0.10;0.10;;;11.60;99.90;;;;;;4997867;28;20031;-65
2022/03/30 07:15:06;;;;;;;0.52;0.52;;;11.60;99.90;;;;;;5004435;28;20076;-65
2022/03/30 07:17:33;;;;;;;0.10;0.10;;;11.70;99.90;;;;;;5001099;28;20026;-64
2022/03/30 07:19:59;;;;;;;0.10;0.10;;;11.70;99.90;;;;;;5001468;28;20478;-65
2022/03/30 07:22:25;;;;;;;0.10;0.10;;;11.70;99.90;;;;;;4998204;28;20060;-65
2022/03/30 07:24:51;;;;;;;0.10;0.10;;;11.70;99.90;;;;;;5004648;28;20053;-65
2022/03/30 07:27:16;;;;;;;0.47;0.47;;;11.70;99.90;;;;;;4997795;28;20034;-65
2022/03/30 07:29:42;;;;;;;0.10;0.10;;;11.70;99.90;;;;;;5000487;28;20034;-64
2022/03/30 07:32:11;;;;;;;0.20;0.20;;;11.80;99.90;;;;;;4999983;28;20038;-66
2022/03/30 07:34:36;;;;;;;0.10;0.10;;;11.70;99.90;;;;;;5004947;28;20029;-65
2022/03/30 07:37:03;;;;;;;0.10;0.10;;;11.70;99.90;;;;;;5003725;28;20022;-64
2022/03/30 07:39:29;;;;;;;0.10;0.10;;;11.80;99.90;;;;;;5000569;28;20262;-65
2022/03/30 07:41:55;;;;;;;0.82;0.82;;;11.80;99.90;;;;;;4999437;28;20057;-66
2022/03/30 07:44:21;;;;;;;0.10;0.10;;;11.80;99.90;;;;;;5000881;28;20545;-63
2022/03/30 07:46:48;;;;;;;0.10;0.10;;;11.80;99.90;;;;;;4998852;28;20042;-65
2022/03/30 07:49:15;;;;;;;0.10;0.10;;;11.80;99.90;;;;;;4992861;28;20494;-64
2022/03/30 07:51:41;;;;;;;0.10;0.10;;;11.80;99.90;;;;;;5001613;28;20033;-65
2022/03/30 07:54:07;;;;;;;0.50;0.50;;;11.80;99.90;;;;;;4994410;28;20034;-66
2022/03/30 07:56:33;;;;;;;4.75;2.85;;;11.80;99.90;;;;;;5004978;28;20029;-64
2022/03/30 07:59:00;;;;;;;0.10;0.10;;;11.70;99.90;;;;;;4991377;28;20022;-66
2022/03/30 08:01:26;;;;;;;0.10;0.10;;;11.60;99.90;;;;;;4997725;28;20109;-65
2022/03/30 08:03:52;;;;;;;0.63;0.63;;;11.70;99.90;;;;;;4998576;28;20026;-65
2022/03/30 08:06:17;;;;;;;8.35;4.75;;;11.60;99.90;;;;;;4997091;28;20088;-64
2022/03/30 08:08:43;;;;;;;1.75;1.65;;;11.60;99.90;;;;;;4994098;28;20080;-64
2022/03/30 08:11:09;;;;;;;0.10;0.10;;;11.70;99.90;;;;;;4994065;28;20238;-64
2022/03/30 08:13:36;;;;;;;0.10;0.10;;;11.70;99.90;;;;;;5003448;28;20040;-64
2022/03/30 08:16:02;;;;;;;0.10;0.10;;;11.70;99.90;;;;;;4993169;28;20026;-65
2022/03/30 08:18:28;;;;;;;0.10;0.10;;;11.70;99.90;;;;;;4995437;28;20080;-63
2022/03/30 08:23:38;;;;;;;0.98;0.98;;;11.70;99.90;;;;;;4989245;28;20049;-66
2022/03/30 08:26:04;;;;;;;0.10;0.10;;;11.70;99.90;;;;;;5002543;28;20025;-65
2022/03/30 08:28:30;;;;;;;0.38;0.38;;;11.70;99.90;;;;;;4996833;28;20072;-65
2022/03/30 08:30:56;;;;;;;2.20;1.48;;;11.70;99.90;;;;;;4989950;28;20039;-64
2022/03/30 08:33:26;;;;;;;0.10;0.10;;;11.70;99.90;;;;;;4998514;28;20026;-64
2022/03/30 08:35:53;;;;;;;0.10;0.10;;;11.70;99.90;;;;;;4994568;28;20019;-64
2022/03/30 08:38:18;;;;;;;0.55;0.55;;;11.90;99.90;;;;;;4997490;28;20018;-65
2022/03/30 08:40:44;;;;;;;0.30;0.30;;;11.70;99.90;;;;;;4995200;28;20034;-64
2022/03/30 08:43:10;;;;;;;0.10;0.10;;;11.50;99.90;;;;;;4989696;28;20030;-66
2022/03/30 08:45:35;;;;;;;0.10;0.10;;;11.50;99.90;;;;;;4996817;28;20104;-64
2022/03/30 08:48:02;;;;;;;7.47;6.43;;;11.40;99.90;;;;;;4999332;28;20030;-65
2022/03/30 08:50:28;;;;;;;0.10;0.10;;;11.40;99.90;;;;;;4995474;28;20018;-66
2022/03/30 08:52:55;;;;;;;7.55;4.63;;;11.40;99.90;;;;;;4995471;28;20026;-65
2022/03/30 08:55:22;;;;;;;0.10;0.10;;;11.40;99.90;;;;;;4992013;28;20028;-64
2022/03/30 08:57:48;;;;;;;0.20;0.20;;;11.40;99.90;;;;;;5000188;28;20022;-66
2022/03/30 09:00:16;;;;;;;0.10;0.10;;;11.40;99.90;;;;;;4991640;28;20026;-64
2022/03/30 09:02:49;;;;;;;0.15;0.15;;;11.40;99.90;;;;;;5000335;28;20140;-65
2022/03/30 09:05:21;;;;;;;1.00;1.00;;;11.40;99.90;;;;;;4995274;28;20022;-66
2022/03/30 09:07:51;;;;;;;0.10;0.10;;;11.50;99.90;;;;;;4985542;28;20034;-65
2022/03/30 09:10:32;;;;;;;0.10;0.10;;;11.30;99.90;;;;;;4991790;28;20034;-65
2022/03/30 09:12:59;;;;;;;0.10;0.10;;;11.50;99.90;;;;;;4994693;28;20029;-68
2022/03/30 09:15:25;;;;;;;4.78;3.78;;;11.60;99.90;;;;;;4992214;28;20026;-65
2022/03/30 09:17:59;;;;;;;0.60;0.40;;;11.50;99.90;;;;;;4997165;28;20318;-65
2022/03/30 09:20:25;;;;;;;0.20;0.20;;;11.60;99.90;;;;;;4987894;28;20021;-64
2022/03/30 09:22:55;;;;;;;0.20;0.20;;;11.50;99.90;;;;;;4987757;28;20038;-66
2022/03/30 09:25:24;;;;;;;0.10;0.10;;;11.50;99.90;;;;;;4987827;28;20034;-64
2022/03/30 09:27:53;;;;;;;11.32;2.72;;;11.50;99.90;;;;;;4989998;28;20158;-66
2022/03/30 09:30:19;;;;;;;0.10;0.10;;;11.50;99.90;;;;;;4997861;28;20032;-64
2022/03/30 09:32:46;;;;;;;0.40;0.40;;;11.50;99.90;;;;;;4999777;28;20480;-64
2022/03/30 09:35:28;;;;;;;1.15;1.15;;;11.60;99.90;;;;;;4993315;28;20117;-66
2022/03/30 09:38:09;;;;;;;0.10;0.10;;;11.50;99.90;;;;;;4998684;28;20113;-65
2022/03/30 09:40:38;;;;;;;0.95;0.95;;;11.50;99.90;;;;;;4998440;28;20030;-67
2022/03/30 09:43:13;;;;;;;0.10;0.10;;;11.60;99.90;;;;;;4995845;28;20028;-65
2022/03/30 09:45:39;;;;;;;0.10;0.10;;;11.60;99.90;;;;;;4999376;28;20109;-66
2022/03/30 09:48:13;;;;;;;0.25;0.25;;;11.50;99.90;;;;;;4997085;28;20180;-65
2022/03/30 09:50:43;;;;;;;0.25;0.25;;;11.60;99.90;;;;;;4998288;28;20033;-65
2022/03/30 09:53:10;;;;;;;0.10;0.10;;;11.60;99.90;;;;;;4997467;28;20499;-63
2022/03/30 09:55:36;;;;;;;0.10;0.10;;;11.70;99.90;;;;;;4999213;28;20030;-64
2022/03/30 09:58:06;;;;;;;0.10;0.10;;;11.60;99.90;;;;;;4994735;28;20484;-64
2022/03/30 10:00:32;;;;;;;2.28;2.08;;;11.70;99.90;;;;;;4998590;28;20096;-66
2022/03/30 10:02:58;;;;;;;0.10;0.10;;;11.80;99.90;;;;;;4993568;28;20058;-69
2022/03/30 10:05:23;;;;;;;0.10;0.10;;;11.80;99.90;;;;;;4998138;28;20029;-68
2022/03/30 10:07:50;;;;;;;0.65;0.65;;;11.60;99.90;;;;;;4996147;28;20038;-68
2022/03/30 10:10:19;;;;;;;0.30;0.30;;;11.50;99.90;;;;;;4993794;28;20030;-65
2022/03/30 10:12:45;;;;;;;0.10;0.10;;;11.70;99.90;;;;;;4996638;28;20060;-66
2022/03/30 10:15:12;;;;;;;0.10;0.10;;;11.80;99.90;;;;;;4995152;28;20526;-64
2022/03/30 10:17:38;;;;;;;0.10;0.10;;;11.80;99.90;;;;;;4992390;28;20105;-64
2022/03/30 10:20:07;;;;;;;0.52;0.52;;;11.90;99.90;;;;;;4998640;28;20018;-66
2022/03/30 10:22:58;;;;;;;0.10;0.10;;;12.00;99.90;;;;;;4996703;28;20030;-64
2022/03/30 10:25:51;;;;;;;0.10;0.10;;;12.10;99.90;;;;;;4996427;28;20114;-66
2022/03/30 10:28:20;;;;;;;0.10;0.10;;;12.00;99.90;;;;;;4996382;28;20436;-65
2022/03/30 10:30:54;;;;;;;0.10;0.10;;;12.20;99.90;;;;;;4996932;28;20051;-65
2022/03/30 10:33:32;;;;;;;0.10;0.10;;;12.20;99.90;;;;;;4995932;28;20148;-65
2022/03/30 10:35:59;;;;;;;0.22;0.22;;;12.40;99.90;;;;;;4991711;28;20156;-65
2022/03/30 10:38:24;;;;;;;0.10;0.10;;;12.50;99.90;;;;;;5000714;28;20018;-64
2022/03/30 10:41:10;;;;;;;0.10;0.10;;;12.60;99.90;;;;;;4996977;28;20042;-66
2022/03/30 10:43:36;;;;;;;2.05;1.85;;;12.80;99.90;;;;;;4996353;28;20045;-65
2022/03/30 10:46:03;;;;;;;1.60;1.55;;;12.90;99.90;;;;;;4994119;28;20419;-65
2022/03/30 10:48:28;;;;;;;4.30;2.40;;;13.10;99.90;;;;;;4997210;28;20022;-66
2022/03/30 10:51:15;;;;;;;0.10;0.10;;;13.10;99.90;;;;;;4997260;28;20518;-65
2022/03/30 10:53:43;;;;;;;0.10;0.10;;;13.00;99.90;;;;;;4998265;28;20026;-67
2022/03/30 10:56:09;;;;;;;0.20;0.20;;;12.90;99.90;;;;;;4997186;28;20059;-66
2022/03/30 10:58:59;;;;;;;1.35;1.35;;;12.90;99.90;;;;;;4995030;28;20058;-66
2022/03/30 11:01:26;;;;;;;0.10;0.10;;;12.70;99.90;;;;;;4988462;28;20046;-65
2022/03/30 11:04:03;;;;;;;0.10;0.10;;;12.60;99.90;;;;;;4987224;28;20519;-66
2022/03/30 11:06:31;;;;;;;0.10;0.10;;;12.60;99.90;;;;;;4985967;28;20092;-64
2022/03/30 11:08:59;;;;;;;0.28;0.28;;;12.50;99.90;;;;;;4984013;28;20073;-67
2022/03/30 11:11:39;;;;;;;0.30;0.30;;;12.40;99.90;;;;;;4986553;28;20069;-65
2022/03/30 11:14:24;;;;;;;0.10;0.10;;;12.50;99.90;;;;;;4989712;28;20022;-65
2022/03/30 11:16:52;;;;;;;0.10;0.10;;;12.60;99.90;;;;;;4990039;28;20476;-65
2022/03/30 11:19:18;;;;;;;0.10;0.10;;;12.50;99.90;;;;;;4988927;28;20471;-66
2022/03/30 11:22:02;;;;;;;0.10;0.10;;;12.70;99.90;;;;;;4986949;28;20085;-66
2022/03/30 11:24:30;;;;;;;0.10;0.10;;;12.80;99.90;;;;;;5004506;28;20030;-66
2022/03/30 11:26:59;;;;;;;0.10;0.10;;;12.80;99.90;;;;;;4993687;28;20088;-67
2022/03/30 11:29:47;;;;;;;0.30;0.30;;;12.80;99.90;;;;;;4992043;28;20030;-64
2022/03/30 11:32:18;;;;;;;0.10;0.10;;;12.70;99.90;;;;;;4991713;28;20068;-65
2022/03/30 11:34:46;;;;;;;0.10;0.10;;;12.50;99.90;;;;;;5004013;28;20030;-65
2022/03/30 11:37:12;;;;;;;0.10;0.10;;;12.50;99.90;;;;;;4991346;28;20105;-65
2022/03/30 11:39:39;;;;;;;0.30;0.30;;;12.20;99.90;;;;;;4991428;28;20364;-64
2022/03/30 11:42:05;;;;;;;0.10;0.10;;;12.30;99.90;;;;;;4989862;28;20161;-65
2022/03/30 11:47:19;;;;;;;0.10;0.10;;;12.60;99.90;;;;;;4993511;28;20036;-65
2022/03/30 11:49:52;;;;;;;0.25;0.25;;;12.60;99.90;;;;;;4992683;28;20030;-64
2022/03/30 11:52:19;;;;;;;0.10;0.10;;;12.70;99.90;;;;;;4956134;22;1898780;-73
2022/03/30 11:54:49;;;;;;;0.22;0.22;;;12.80;99.90;;;;;;5027112;28;20041;-70
2022/03/30 11:57:16;;;;;;;0.20;0.20;;;12.70;99.90;;;;;;5030211;28;20028;-69
2022/03/30 11:59:52;;;;;;;0.10;0.10;;;12.70;99.90;;;;;;5029126;28;20107;-70
2022/03/30 12:02:19;;;;;;;0.15;0.15;;;12.70;99.90;;;;;;5023296;28;20029;-73
2022/03/30 12:04:45;;;;;;;0.10;0.10;;;12.80;99.90;;;;;;5028328;28;20029;-74
2022/03/30 12:07:15;;;;;;;1.45;1.35;;;12.80;99.90;;;;;;5019786;28;20572;-73
2022/03/30 12:09:57;;;;;;;0.10;0.10;;;12.80;99.90;;;;;;5023538;28;20104;-71
2022/03/30 12:12:35;;;;;;;0.65;0.65;;;12.80;99.90;;;;;;5020488;28;20026;-73
2022/03/30 12:15:11;;;;;;;0.10;0.10;;;12.90;99.90;;;;;;5020636;28;20109;-70
2022/03/30 12:17:37;;;;;;;0.10;0.10;;;12.80;99.90;;;;;;5023313;28;20029;-69
2022/03/30 12:20:09;;;;;;;0.10;0.10;;;12.90;99.90;;;;;;5024411;28;20021;-70
2022/03/30 12:22:38;;;;;;;0.10;0.10;;;12.80;99.90;;;;;;5021415;28;20061;-69
2022/03/30 12:25:25;;;;;;;0.10;0.10;;;12.60;99.90;;;;;;5021521;28;20065;-70
2022/03/30 12:27:51;;;;;;;0.10;0.10;;;12.40;99.90;;;;;;5021930;28;20135;-73
2022/03/30 12:30:17;;;;;;;0.10;0.10;;;12.40;99.90;;;;;;5023838;28;20503;-71
2022/03/30 12:32:44;;;;;;;0.10;0.10;;;12.40;99.90;;;;;;5022888;28;20061;-70
2022/03/30 12:35:12;;;;;;;7.82;3.63;;;12.40;99.90;;;;;;5017874;28;20332;-72
2022/03/30 12:37:43;;;;;;;0.10;0.10;;;12.40;99.90;;;;;;5040436;28;20103;-70
2022/03/30 12:40:12;;;;;;;0.10;0.10;;;12.30;99.90;;;;;;5024530;28;20112;-70
2022/03/30 12:42:39;;;;;;;0.25;0.25;;;12.00;99.90;;;;;;5020671;28;20121;-71
2022/03/30 12:45:10;;;;;;;0.10;0.10;;;11.70;99.90;;;;;;5022230;28;20041;-70
2022/03/30 12:47:39;;;;;;;0.10;0.10;;;11.40;99.90;;;;;;5021952;28;20044;-70
2022/03/30 12:50:19;;;;;;;0.10;0.10;;;11.20;99.90;;;;;;5021755;28;20108;-70
2022/03/30 12:52:51;;;;;;;0.10;0.10;;;11.00;99.90;;;;;;5022907;28;20406;-70
2022/03/30 12:55:32;;;;;;;0.10;0.10;;;10.90;99.90;;;;;;5022033;28;20017;-70
2022/03/30 12:58:07;;;;;;;0.10;0.10;;;10.80;99.90;;;;;;5021498;28;20026;-73
2022/03/30 13:00:37;;;;;;;0.10;0.10;;;10.00;99.90;;;;;;5021257;28;20041;-70
2022/03/30 13:03:11;;;;;;;0.10;0.10;;;10.70;99.90;;;;;;5022429;28;20116;-70
2022/03/30 13:05:40;;;;;;;0.10;0.10;;;10.60;99.90;;;;;;5021284;28;20088;-70